Spring Lake, NC

1:51 PM EDT on August 31, 2016 (GMT -0400)
Simmons Army Air Field | | Change Station

Elev 243 ft 35.13 °N, 78.94 °W | Updated 30 minutes ago

Scattered Clouds
Scattered Clouds
90 °F
Feels Like 95 °F
N
5
Wind Variable Wind from ESE

Today
High -- | Low -- °F
--% Chance of Precip.
Yesterday
High -- | Low -- °F
Precip. -- in
Pressure 29.96 in
Visibility 10.0 miles
Clouds Few 3500 ft
Scattered Clouds 16000 ft
Scattered Clouds 18000 ft
Heat Index 95 °F
Dew Point 70 °F
Humidity 52%
Rainfall 0.00 in
Snow Depth Not available.
6:47 AM 7:43 PM
Waning Crescent, 0% visible
SPECI KFBG 311721Z AUTO 11004KT 10SM FEW035 SCT160 SCT180 32/21 A2996 RMK AO2
Pressure 29.96 in
Visibility 10.0 miles
Clouds Few 3500 ft
Scattered Clouds 16000 ft
Scattered Clouds 18000 ft
Heat Index 95 °F
Dew Point 70 °F
Humidity 52%
Rainfall 0.00 in
Snow Depth Not available.
6:47 AM 7:43 PM
Waning Crescent, 0% visible
SPECI KFBG 311721Z AUTO 11004KT 10SM FEW035 SCT160 SCT180 32/21 A2996 RMK AO2

10-Day Weather Forecast

Almanac

Astronomy

Aug. 31, 2016 Rise Set
Actual Time
Civil Twilight
Nautical Twilight
Astronomical Twilight
Moon
Length of Visible Light
Length of Day
Tomorrow will be .
, % of the Moon is Illuminated

Today's Extremes

State Highs State Lows

Community

WunderPhotos

Upload Photos

1,936,146 photos uploaded!

WunderBlog® & News

Nearby

Air Quality

  Air Quality AQ Index Pollutant
Not available.

Snow Depth

Station Depth Elevation

Earthquake Activity

City Distance Mag. Time & Date
Minimum magnitude displayed is 2.5.

Coastal Water Temperatures

Place Temperature

Stations

Nearby Weather Stations

Station Location Temp. Windchill Dew Point Humidity Wind Precip. Elev Updated Type
                   

Watches & Warnings

There are currently no watches in effect.